Lamotte, Illinois
Current Conditions -  °F | °C
As of 3:15 AM on Monday 22 Dec 2014 (Local Time) from KRSV Reporting Station
Overcast Overcast  
Wind Chill: 33°   Ceiling: 6500
Heat Index: 33°   Visibility: 7mi
Dew Point: 30°   Wind: 3mph
Humidity: 91%   Direction: 100°E
Pressure: 29.98"   Gusts: NA
Location:  39.0088°N, 87.6216°W
Report Text: KRSV 220915Z AUTO 10003KT 7SM BKN065 OVC075 00/M01 A2998 RMK AO2 T00031010
Loading
Personal Weather Stations






























Interactive Weather Map New forecast layout! Learn more

10-Day Weather Forecast

Advertisements
Track Severe Weather on mobile